Hauptseite
METAR-TAF:

METAR-TAF

Flughäfen :

RAF Wittering

Wittering, England

Breite: 52-37N, Länge: 000-28W, Höhe: 84 m

Beobachtung

Neuester Wetterbericht von vor 48 Minuten, um 17:50 UTC
Wind 10 kt aus Südwest
Temperatur 25°C
Luftfeuchtigkeit 65%
Luftdruck 1016 hPa
Sichtweite 10 km oder mehr

METAR: EGXT 061750Z AUTO 22010KT 9999 SCT039/// BKN050/// 25/18 Q1016

Zeit: 19:38 (18:38 UTC)

Prognose

Neuester Wetterbericht von vor 5 Stunden und 3 Minuten, um 13:35 UTC
Gültige Prognose vom 06 um 15 UTC bis 06 um 17 UTC
Wind 10 kt aus Süd/Südwest
Sichtweite 10 km oder mehr
Aufgelockert bewölkt in der Höhe von 2700 ft
Durchbrochene Bewölkung in der Höhe von 3800 ft

TAF: EGXT 061335Z 0615/0617 20010KT 9999 SCT027 BKN038

Wetterbeobachtungen und Prognosen von mehr als 4000 Flughäfen (METAR und TAF Bericht).

Die verfügbaren Stationen werden durch gelbe und rote Markierungen auf der Karte dargestellt.

Führen Sie die Maus auf sie, um den Namen der Station zu sehen.

Darauf klicken, um die Beobachtung von Wetterbeobachtungen und Prognosen zu sehen.

Um die Karte zu ändern : klicken Sie auf den grünen Tasten mit einem schwarzen Kreuz Zum Vergrößern, auf den grünen Button mit einem Gedankenstrich zu verkleinern, oder auf die grünen Pfeile für benachbarte Karten.


METAR-TAF: